Time;durP1;ratioP1;P1;durP2;ratioP2;P2;SDS_P1;SDS_P2;PMS_P1;PMS_P2;Temp;Humidity;BMP_temperature;BMP_pressure;BME280_temperature;BME280_humidity;BME280_pressure;Samples;Min_cycle;Max_cycle;Signal;HPM_P1;HPM_P2
2022/08/02 00:00:42;;;;;;;1.92;1.80;;;21.70;56.80;;;;;;5042576;28;20036;-73
2022/08/02 00:03:07;;;;;;;1.70;1.60;;;21.60;56.80;;;;;;5063883;28;20028;-73
2022/08/02 00:05:33;;;;;;;2.00;1.52;;;21.60;56.90;;;;;;5027041;28;20032;-73
2022/08/02 00:07:58;;;;;;;5.57;1.90;;;21.60;57.20;;;;;;5058255;28;20037;-72
2022/08/02 00:10:24;;;;;;;2.33;1.52;;;21.50;57.20;;;;;;5014500;28;20029;-73
2022/08/02 00:12:49;;;;;;;2.00;1.40;;;21.50;57.20;;;;;;5052249;28;20377;-72
2022/08/02 00:15:15;;;;;;;1.70;1.60;;;21.40;57.40;;;;;;5070032;28;20040;-73
2022/08/02 00:17:40;;;;;;;1.70;1.60;;;21.40;57.40;;;;;;5032606;28;20028;-72
2022/08/02 00:20:06;;;;;;;2.72;1.50;;;21.40;57.60;;;;;;5019208;28;20025;-72
2022/08/02 00:22:32;;;;;;;1.45;1.35;;;21.30;57.60;;;;;;5025076;28;20029;-73
2022/08/02 00:24:57;;;;;;;1.85;1.58;;;21.30;57.80;;;;;;5035987;28;20674;-72
2022/08/02 00:27:23;;;;;;;1.85;1.67;;;21.30;57.90;;;;;;5024493;28;20051;-72
2022/08/02 00:29:50;;;;;;;1.50;1.40;;;21.30;57.90;;;;;;5046527;28;20028;-72
2022/08/02 00:32:16;;;;;;;1.30;1.20;;;21.30;58.10;;;;;;5041901;28;20118;-72
2022/08/02 00:34:42;;;;;;;1.90;1.50;;;21.20;58.10;;;;;;5011096;28;20064;-72
2022/08/02 00:37:07;;;;;;;1.42;1.33;;;21.20;58.10;;;;;;5043218;28;20085;-72
2022/08/02 00:39:33;;;;;;;2.13;1.50;;;21.20;58.30;;;;;;5068659;28;20149;-72
2022/08/02 00:41:58;;;;;;;1.42;1.30;;;21.10;58.40;;;;;;5041137;28;20108;-72
2022/08/02 00:44:24;;;;;;;1.40;1.30;;;21.10;58.60;;;;;;5038926;28;20443;-72
2022/08/02 00:46:49;;;;;;;1.50;1.40;;;21.10;58.50;;;;;;5024422;28;20036;-73
2022/08/02 00:49:15;;;;;;;1.83;1.20;;;21.10;58.70;;;;;;5058172;28;21081;-74
2022/08/02 00:51:40;;;;;;;2.50;1.15;;;21.10;58.70;;;;;;5037864;28;20040;-74
2022/08/02 00:54:06;;;;;;;1.42;1.23;;;21.00;58.80;;;;;;5037302;28;20035;-74
2022/08/02 00:56:32;;;;;;;1.30;1.20;;;21.00;58.90;;;;;;5029567;28;20039;-74
2022/08/02 00:58:57;;;;;;;4.05;1.25;;;21.00;59.00;;;;;;5035454;28;20515;-75
2022/08/02 01:01:37;;;;;;;1.50;1.20;;;21.00;59.10;;;;;;5054034;28;20035;-74
2022/08/02 01:04:05;;;;;;;1.27;1.17;;;20.90;59.10;;;;;;5003960;28;20043;-73
2022/08/02 01:06:32;;;;;;;1.25;1.15;;;20.90;59.20;;;;;;5027282;28;20110;-72
2022/08/02 01:08:58;;;;;;;1.33;1.10;;;20.90;59.20;;;;;;5072725;28;20565;-73
2022/08/02 01:11:24;;;;;;;1.20;1.10;;;20.90;59.20;;;;;;5042068;28;20158;-73
2022/08/02 01:13:49;;;;;;;1.20;1.10;;;20.90;59.30;;;;;;5057447;28;20032;-73
2022/08/02 01:16:17;;;;;;;0.98;0.90;;;20.90;59.40;;;;;;5074968;28;20041;-72
2022/08/02 01:18:45;;;;;;;1.30;1.20;;;20.90;59.50;;;;;;4992913;28;20037;-73
2022/08/02 01:21:13;;;;;;;1.38;1.17;;;20.80;59.50;;;;;;5026873;28;20759;-73
2022/08/02 01:23:55;;;;;;;1.10;1.00;;;20.90;59.70;;;;;;5071230;28;20088;-72
2022/08/02 01:26:43;;;;;;;0.95;0.90;;;20.80;60.00;;;;;;5028627;28;20052;-72
2022/08/02 01:29:29;;;;;;;1.48;1.13;;;20.80;59.70;;;;;;5035219;28;20102;-72
2022/08/02 01:32:05;;;;;;;1.20;1.10;;;20.80;60.00;;;;;;5000823;28;20525;-73
2022/08/02 01:34:45;;;;;;;1.02;0.93;;;20.70;59.80;;;;;;5002650;28;20040;-73
2022/08/02 01:37:31;;;;;;;1.73;1.33;;;20.70;60.00;;;;;;5030794;28;20115;-73
2022/08/02 01:40:01;;;;;;;1.30;1.20;;;20.70;59.90;;;;;;5018514;28;20106;-72
2022/08/02 01:42:27;;;;;;;1.98;1.10;;;20.60;59.90;;;;;;5023729;28;20055;-73
2022/08/02 01:44:52;;;;;;;0.93;0.93;;;20.60;59.90;;;;;;5024174;28;20110;-74
2022/08/02 01:47:23;;;;;;;1.35;1.25;;;20.60;60.00;;;;;;5024289;28;20033;-73
2022/08/02 01:49:50;;;;;;;1.30;1.20;;;20.60;60.10;;;;;;5010323;28;20033;-74
2022/08/02 01:52:22;;;;;;;1.13;1.10;;;20.60;60.20;;;;;;5034677;28;20047;-73
2022/08/02 01:55:03;;;;;;;0.90;0.90;;;20.60;60.30;;;;;;5008293;28;20242;-73
2022/08/02 01:57:34;;;;;;;1.20;1.10;;;20.50;60.60;;;;;;5013748;28;20047;-73
2022/08/02 01:59:59;;;;;;;0.93;0.93;;;20.50;60.50;;;;;;5013359;28;20059;-74
2022/08/02 02:02:25;;;;;;;1.60;0.93;;;20.50;60.40;;;;;;5002406;28;20580;-73
2022/08/02 02:04:51;;;;;;;0.90;0.90;;;20.50;60.50;;;;;;5012718;28;20041;-73
2022/08/02 02:07:17;;;;;;;2.70;0.98;;;20.50;60.70;;;;;;5014047;28;20095;-73
2022/08/02 02:09:43;;;;;;;1.75;0.85;;;20.40;60.70;;;;;;5014212;28;20064;-72
2022/08/02 02:12:08;;;;;;;1.70;0.90;;;20.40;60.80;;;;;;5011299;28;20132;-72
2022/08/02 02:14:34;;;;;;;1.50;0.90;;;20.30;60.80;;;;;;5029942;28;20085;-73
2022/08/02 02:16:59;;;;;;;1.83;0.80;;;20.30;60.90;;;;;;5009747;28;20120;-72
2022/08/02 02:19:25;;;;;;;0.95;0.85;;;20.30;60.90;;;;;;5015306;28;20071;-72
2022/08/02 02:21:51;;;;;;;1.10;0.90;;;20.30;61.00;;;;;;5005548;28;20033;-72
2022/08/02 02:24:16;;;;;;;1.73;1.10;;;20.20;61.10;;;;;;5011120;28;20510;-73
2022/08/02 02:26:42;;;;;;;2.00;0.95;;;20.20;61.20;;;;;;5033006;28;20059;-72
2022/08/02 02:29:08;;;;;;;1.10;1.00;;;20.20;61.30;;;;;;5043435;28;20574;-72
2022/08/02 02:31:37;;;;;;;2.55;0.90;;;20.20;61.30;;;;;;5043645;28;20067;-73
2022/08/02 02:34:04;;;;;;;3.67;1.08;;;20.10;61.50;;;;;;5041268;28;20048;-73
2022/08/02 02:36:29;;;;;;;1.65;1.10;;;20.10;61.40;;;;;;5010598;28;20037;-73
2022/08/02 02:38:56;;;;;;;1.40;1.08;;;20.10;61.60;;;;;;5043173;28;20738;-72
2022/08/02 02:41:22;;;;;;;1.20;1.10;;;20.00;61.60;;;;;;5035324;28;20167;-72
2022/08/02 02:43:47;;;;;;;1.33;1.23;;;20.00;61.70;;;;;;5053606;28;20040;-73
2022/08/02 02:46:14;;;;;;;0.98;0.88;;;19.90;61.70;;;;;;5015929;28;20537;-75
2022/08/02 02:48:39;;;;;;;1.20;1.10;;;19.90;61.70;;;;;;5029028;28;20090;-72
2022/08/02 02:51:05;;;;;;;1.17;1.08;;;19.90;61.90;;;;;;5007170;28;20044;-73
2022/08/02 02:53:30;;;;;;;1.63;1.02;;;19.90;62.00;;;;;;5056740;28;20029;-73
2022/08/02 02:55:56;;;;;;;1.20;1.10;;;19.80;62.00;;;;;;5025522;28;20607;-73
2022/08/02 02:58:22;;;;;;;2.45;1.00;;;19.80;62.20;;;;;;5016629;28;20097;-72
2022/08/02 03:03:31;;;;;;;2.15;1.23;;;19.70;62.30;;;;;;5050969;28;20043;-72
2022/08/02 03:05:57;;;;;;;0.90;0.90;;;19.70;62.50;;;;;;5041998;28;20416;-72
2022/08/02 03:08:22;;;;;;;1.65;0.90;;;19.70;62.70;;;;;;5042186;28;20797;-72
2022/08/02 03:10:48;;;;;;;1.02;0.98;;;19.60;62.70;;;;;;5006008;28;20036;-72
2022/08/02 03:13:13;;;;;;;1.40;1.20;;;19.60;62.90;;;;;;5049074;28;20059;-72
2022/08/02 03:15:39;;;;;;;4.10;0.90;;;19.50;62.80;;;;;;5032420;28;20063;-72
2022/08/02 03:18:07;;;;;;;1.20;0.95;;;19.50;62.90;;;;;;5006034;28;20040;-72
2022/08/02 03:20:32;;;;;;;1.65;0.82;;;19.50;63.00;;;;;;5047110;28;20054;-74
2022/08/02 03:22:58;;;;;;;1.10;0.90;;;19.40;63.00;;;;;;5042000;28;20591;-75
2022/08/02 03:25:23;;;;;;;1.10;1.00;;;19.40;63.10;;;;;;5012585;28;20673;-74
2022/08/02 03:27:49;;;;;;;2.78;1.20;;;19.40;63.20;;;;;;4993578;28;20713;-74
2022/08/02 03:30:14;;;;;;;1.23;1.13;;;19.30;63.30;;;;;;5024853;28;20033;-75
2022/08/02 03:32:42;;;;;;;1.80;0.90;;;19.30;63.40;;;;;;5005628;28;20413;-73
2022/08/02 03:35:09;;;;;;;0.80;0.80;;;19.30;63.60;;;;;;5004894;28;20036;-74
2022/08/02 03:37:35;;;;;;;1.20;1.10;;;19.30;63.70;;;;;;5023694;28;20119;-74
2022/08/02 03:40:00;;;;;;;0.77;0.77;;;19.20;63.60;;;;;;5027490;28;20149;-75
2022/08/02 03:42:26;;;;;;;1.33;1.23;;;19.20;63.70;;;;;;5011302;28;20036;-75
2022/08/02 03:44:52;;;;;;;1.30;1.20;;;19.20;63.90;;;;;;5001643;28;20048;-74
2022/08/02 03:47:17;;;;;;;1.02;0.93;;;19.10;63.90;;;;;;5028035;28;20890;-74
2022/08/02 03:49:43;;;;;;;1.50;1.05;;;19.10;64.00;;;;;;5019092;28;20044;-74
2022/08/02 03:52:08;;;;;;;1.20;1.00;;;19.10;64.10;;;;;;5016658;28;20037;-75
2022/08/02 03:54:34;;;;;;;3.17;1.00;;;19.10;64.10;;;;;;5020668;28;20484;-74
2022/08/02 03:56:59;;;;;;;1.77;0.90;;;19.00;64.30;;;;;;5003149;28;20489;-73
2022/08/02 03:59:25;;;;;;;1.45;1.33;;;19.00;64.40;;;;;;5018433;28;20048;-73
2022/08/02 04:01:50;;;;;;;1.10;1.00;;;18.90;64.60;;;;;;5032790;28;20040;-75
2022/08/02 04:04:16;;;;;;;1.48;1.30;;;18.90;64.60;;;;;;5014654;28;20036;-74
2022/08/02 04:06:42;;;;;;;1.98;1.10;;;18.90;64.80;;;;;;5023684;28;20036;-74
2022/08/02 04:09:08;;;;;;;0.98;0.98;;;18.90;64.90;;;;;;5029753;28;20049;-74
2022/08/02 04:11:33;;;;;;;1.20;1.10;;;18.90;65.00;;;;;;5031985;28;20053;-74
2022/08/02 04:14:05;;;;;;;1.08;0.98;;;18.80;65.10;;;;;;5023966;28;20048;-72
2022/08/02 04:16:38;;;;;;;1.60;1.00;;;18.80;65.20;;;;;;5028510;28;20594;-73
2022/08/02 04:19:03;;;;;;;1.20;1.10;;;18.80;65.20;;;;;;5008732;28;20056;-73
2022/08/02 04:21:31;;;;;;;1.17;1.02;;;18.80;65.20;;;;;;5020958;28;20621;-72
2022/08/02 04:23:57;;;;;;;2.75;1.00;;;18.80;65.40;;;;;;5030981;28;20051;-72
2022/08/02 04:26:22;;;;;;;0.95;0.95;;;18.70;65.30;;;;;;5017596;28;20115;-72
2022/08/02 04:28:48;;;;;;;1.13;1.02;;;18.70;65.40;;;;;;5031760;28;20051;-73
2022/08/02 04:31:15;;;;;;;1.00;1.00;;;18.70;65.60;;;;;;5057443;28;20089;-72
2022/08/02 04:33:41;;;;;;;1.40;1.30;;;18.70;65.60;;;;;;5032260;28;20032;-72
2022/08/02 04:36:07;;;;;;;1.10;1.00;;;18.70;65.60;;;;;;5038599;28;20066;-72
2022/08/02 04:38:32;;;;;;;1.35;1.05;;;18.70;65.70;;;;;;5021222;28;20032;-72
2022/08/02 04:40:58;;;;;;;2.03;1.10;;;18.70;65.90;;;;;;5027572;28;20036;-72
2022/08/02 04:43:23;;;;;;;1.27;1.02;;;18.70;66.10;;;;;;5031990;28;20025;-73
2022/08/02 04:45:51;;;;;;;1.35;1.25;;;18.70;66.00;;;;;;5039929;28;20065;-71
2022/08/02 04:48:17;;;;;;;1.30;1.20;;;18.70;66.20;;;;;;5043093;28;20067;-73
2022/08/02 04:50:42;;;;;;;1.30;1.20;;;18.70;66.20;;;;;;5047022;28;20051;-72
2022/08/02 04:53:08;;;;;;;2.08;1.17;;;18.70;66.40;;;;;;5054087;28;20396;-72
2022/08/02 04:55:33;;;;;;;1.10;1.00;;;18.70;66.40;;;;;;5029221;28;20040;-74
2022/08/02 04:57:59;;;;;;;1.02;1.00;;;18.70;66.70;;;;;;5050064;28;20036;-73
2022/08/02 05:00:25;;;;;;;1.20;1.10;;;18.80;66.80;;;;;;5032019;28;20025;-72
2022/08/02 05:02:51;;;;;;;1.10;1.00;;;18.70;66.80;;;;;;5044321;28;20032;-72
2022/08/02 05:05:17;;;;;;;1.33;1.23;;;18.80;66.80;;;;;;5034254;28;20036;-73
2022/08/02 05:07:42;;;;;;;1.40;1.30;;;18.80;66.90;;;;;;5041433;28;20037;-72
2022/08/02 05:10:08;;;;;;;1.48;1.38;;;18.80;67.10;;;;;;5042702;28;20040;-72
2022/08/02 05:12:33;;;;;;;1.55;1.45;;;18.90;67.10;;;;;;5054304;28;20175;-73
2022/08/02 05:14:59;;;;;;;1.55;1.45;;;18.90;67.30;;;;;;5070840;28;20043;-72
2022/08/02 05:17:25;;;;;;;2.38;1.38;;;18.90;67.30;;;;;;5050929;28;20032;-73
2022/08/02 05:19:50;;;;;;;2.33;1.38;;;19.00;67.50;;;;;;5010551;28;20025;-74
2022/08/02 05:22:16;;;;;;;2.45;1.70;;;19.00;67.50;;;;;;5067333;28;20036;-73
2022/08/02 05:24:41;;;;;;;4.00;1.60;;;19.00;67.60;;;;;;5044361;28;20048;-73
2022/08/02 05:27:07;;;;;;;2.20;2.00;;;19.10;67.80;;;;;;5029899;28;20150;-74
2022/08/02 05:29:32;;;;;;;4.20;1.90;;;19.10;68.10;;;;;;5044883;28;20059;-73
2022/08/02 05:31:58;;;;;;;3.72;1.88;;;19.20;68.00;;;;;;5015307;28;20055;-73
2022/08/02 05:34:23;;;;;;;6.15;2.55;;;19.20;68.10;;;;;;5049711;28;20110;-72
2022/08/02 05:36:49;;;;;;;5.40;2.65;;;19.30;68.10;;;;;;5045502;28;20032;-73
2022/08/02 05:39:14;;;;;;;7.72;2.28;;;19.30;68.20;;;;;;5035869;28;20028;-72
2022/08/02 05:41:40;;;;;;;3.97;2.00;;;19.40;68.20;;;;;;5021851;28;20077;-74
2022/08/02 05:44:06;;;;;;;2.65;2.05;;;19.40;68.30;;;;;;5038108;28;20446;-73
2022/08/02 05:46:31;;;;;;;4.00;2.00;;;19.50;68.50;;;;;;5065903;28;20037;-73
2022/08/02 05:48:57;;;;;;;3.72;2.10;;;19.60;68.40;;;;;;5050863;28;20040;-73
2022/08/02 05:51:34;;;;;;;7.85;2.35;;;19.60;69.20;;;;;;5037864;28;20044;-74
2022/08/02 05:54:10;;;;;;;2.85;1.60;;;19.70;68.30;;;;;;5040213;28;20033;-72
2022/08/02 05:56:54;;;;;;;2.05;1.70;;;19.70;68.50;;;;;;5019392;28;20590;-72
2022/08/02 05:59:26;;;;;;;2.85;1.88;;;19.80;69.00;;;;;;5061896;28;20056;-71
2022/08/02 06:01:55;;;;;;;2.55;1.60;;;19.90;68.40;;;;;;5027879;28;20036;-73
2022/08/02 06:04:25;;;;;;;3.38;1.80;;;20.00;68.30;;;;;;5054909;28;20032;-72
2022/08/02 06:06:51;;;;;;;1.63;1.25;;;20.10;68.40;;;;;;5041750;28;20036;-72
2022/08/02 06:09:17;;;;;;;3.78;1.85;;;20.20;68.10;;;;;;5030331;28;20041;-74
2022/08/02 06:11:44;;;;;;;3.13;2.00;;;20.20;68.00;;;;;;5061564;28;20048;-72
2022/08/02 06:14:11;;;;;;;3.92;1.83;;;20.30;68.00;;;;;;5023760;28;20051;-72
2022/08/02 06:16:37;;;;;;;5.25;1.80;;;20.40;67.80;;;;;;5050485;28;20047;-73
2022/08/02 06:19:04;;;;;;;6.03;1.80;;;20.50;67.70;;;;;;5036515;28;20036;-72
2022/08/02 06:21:29;;;;;;;10.25;1.75;;;20.60;67.50;;;;;;5043103;28;20041;-72
2022/08/02 06:23:57;;;;;;;1.90;1.80;;;20.70;67.30;;;;;;5050675;28;20044;-73
2022/08/02 06:26:23;;;;;;;3.38;2.00;;;20.80;67.10;;;;;;5020113;28;20039;-73
2022/08/02 06:28:54;;;;;;;4.97;1.63;;;20.90;66.90;;;;;;5004862;28;21158;-73
2022/08/02 06:31:20;;;;;;;3.30;1.40;;;20.90;66.90;;;;;;5035592;28;20079;-72
2022/08/02 06:33:45;;;;;;;4.38;1.70;;;21.00;66.60;;;;;;5013017;28;20464;-72
2022/08/02 06:36:37;;;;;;;3.17;1.50;;;21.10;66.50;;;;;;5030831;28;20056;-72
2022/08/02 06:39:13;;;;;;;4.45;1.70;;;21.20;66.60;;;;;;5000913;28;20033;-72
2022/08/02 06:41:41;;;;;;;3.55;1.50;;;21.20;66.20;;;;;;5030609;28;20030;-71
2022/08/02 06:44:06;;;;;;;2.15;1.63;;;21.30;66.00;;;;;;5004601;28;20424;-72
2022/08/02 06:46:32;;;;;;;5.80;1.52;;;21.40;65.70;;;;;;5015230;28;20504;-72
2022/08/02 06:48:58;;;;;;;2.67;1.65;;;21.50;65.60;;;;;;5026387;28;20401;-73
2022/08/02 06:51:24;;;;;;;5.13;1.63;;;21.60;65.30;;;;;;5030515;28;20059;-73
2022/08/02 06:53:49;;;;;;;1.50;1.40;;;21.80;65.20;;;;;;5058445;28;20033;-72
2022/08/02 06:56:15;;;;;;;2.70;1.10;;;21.90;64.90;;;;;;5040142;28;20040;-74
2022/08/02 06:58:41;;;;;;;1.58;1.30;;;22.00;64.40;;;;;;5004356;28;20054;-73
2022/08/02 07:01:06;;;;;;;3.05;1.52;;;22.10;64.10;;;;;;5056530;28;20564;-74
2022/08/02 07:03:36;;;;;;;1.40;1.30;;;22.30;63.80;;;;;;5022140;28;20534;-72
2022/08/02 07:06:01;;;;;;;3.75;1.25;;;22.40;63.50;;;;;;4994923;28;20036;-73
2022/08/02 07:08:31;;;;;;;2.88;1.30;;;22.50;63.20;;;;;;5018589;28;20099;-74
2022/08/02 07:11:02;;;;;;;1.50;1.33;;;22.60;62.90;;;;;;5009414;28;20037;-72
2022/08/02 07:13:28;;;;;;;3.55;1.20;;;22.80;62.70;;;;;;4988585;28;20056;-73
2022/08/02 07:15:54;;;;;;;6.50;1.75;;;22.90;62.40;;;;;;5034929;28;20053;-73
2022/08/02 07:18:20;;;;;;;1.90;1.17;;;23.10;62.10;;;;;;5010330;28;20045;-73
2022/08/02 07:20:45;;;;;;;2.53;1.33;;;23.20;61.70;;;;;;5027185;28;20032;-73
2022/08/02 07:23:11;;;;;;;8.38;1.20;;;23.40;61.30;;;;;;5030003;28;20041;-73
2022/08/02 07:25:37;;;;;;;2.47;1.42;;;23.50;60.90;;;;;;5014379;28;20045;-74
2022/08/02 07:28:03;;;;;;;1.80;1.10;;;23.70;60.50;;;;;;5029654;28;20041;-73
2022/08/02 07:30:31;;;;;;;1.50;1.40;;;23.80;60.10;;;;;;5009388;28;20591;-74
2022/08/02 07:32:57;;;;;;;1.20;1.02;;;24.00;59.80;;;;;;5022491;28;20077;-73
2022/08/02 07:35:23;;;;;;;2.00;1.20;;;24.20;59.50;;;;;;5022116;28;20057;-73
2022/08/02 07:37:48;;;;;;;2.05;1.42;;;24.30;59.30;;;;;;5021955;28;20047;-74
2022/08/02 07:40:14;;;;;;;2.30;1.05;;;24.50;59.00;;;;;;5022748;28;20048;-74
2022/08/02 07:42:40;;;;;;;1.75;1.15;;;24.70;58.60;;;;;;5013008;28;20075;-73
2022/08/02 07:45:06;;;;;;;1.77;1.10;;;24.90;58.30;;;;;;5036512;28;20724;-73
2022/08/02 07:47:34;;;;;;;4.03;1.52;;;25.10;58.00;;;;;;5018674;28;20041;-72
2022/08/02 07:50:01;;;;;;;1.20;1.10;;;25.20;57.50;;;;;;5011841;28;20056;-73
2022/08/02 07:52:27;;;;;;;1.55;1.10;;;25.40;57.00;;;;;;5011848;28;20536;-73
2022/08/02 07:54:52;;;;;;;2.65;0.93;;;25.60;56.60;;;;;;5014696;28;20049;-73
2022/08/02 07:57:19;;;;;;;0.80;0.77;;;25.80;56.10;;;;;;5004908;28;20051;-74
2022/08/02 07:59:46;;;;;;;1.35;1.25;;;26.00;55.60;;;;;;5011989;28;20059;-73
2022/08/02 08:02:13;;;;;;;0.80;0.80;;;26.10;54.90;;;;;;5007463;28;20481;-73
2022/08/02 08:04:39;;;;;;;4.00;1.15;;;26.20;54.10;;;;;;5019122;28;20054;-74
2022/08/02 08:07:06;;;;;;;1.20;1.10;;;26.40;53.60;;;;;;5026929;28;20413;-73
2022/08/02 08:09:32;;;;;;;2.20;1.00;;;26.60;53.00;;;;;;5026515;28;20531;-73
2022/08/02 08:11:57;;;;;;;1.95;1.00;;;26.70;52.50;;;;;;5025229;28;20040;-74
2022/08/02 08:14:23;;;;;;;3.15;1.25;;;26.80;52.10;;;;;;4997117;28;20463;-73
2022/08/02 08:16:48;;;;;;;1.23;0.82;;;27.00;51.70;;;;;;5002844;28;20551;-73
2022/08/02 08:19:14;;;;;;;1.17;0.90;;;27.10;51.40;;;;;;5024934;28;20107;-72
2022/08/02 08:21:39;;;;;;;4.05;0.80;;;27.30;51.00;;;;;;5021477;28;20029;-77
2022/08/02 08:24:05;;;;;;;2.08;0.88;;;27.50;50.70;;;;;;5009244;28;20048;-77
2022/08/02 08:26:31;;;;;;;1.27;0.95;;;27.60;50.40;;;;;;5027347;28;20041;-76
2022/08/02 08:28:56;;;;;;;2.00;0.80;;;27.70;50.00;;;;;;5056719;28;20051;-76
2022/08/02 08:31:22;;;;;;;0.88;0.80;;;27.80;49.70;;;;;;5034469;28;20040;-77
2022/08/02 08:33:47;;;;;;;1.08;0.75;;;28.00;49.40;;;;;;5035939;28;20028;-76
2022/08/02 08:36:15;;;;;;;0.75;0.75;;;28.20;49.10;;;;;;5051012;28;20039;-77
2022/08/02 08:38:40;;;;;;;0.75;0.70;;;28.30;48.60;;;;;;5041112;28;20037;-76
2022/08/02 08:41:06;;;;;;;1.27;0.70;;;28.50;48.30;;;;;;5038730;28;20062;-77
2022/08/02 08:43:31;;;;;;;1.63;0.68;;;28.70;48.00;;;;;;5039323;28;20554;-76
2022/08/02 08:45:57;;;;;;;1.48;0.70;;;28.80;47.30;;;;;;5062674;28;20048;-76
2022/08/02 08:48:23;;;;;;;0.80;0.80;;;29.00;46.60;;;;;;5061962;28;20040;-73
2022/08/02 08:51:07;;;;;;;3.20;0.70;;;29.10;46.00;;;;;;5022695;28;20036;-74
2022/08/02 08:53:38;;;;;;;1.90;0.70;;;29.30;44.30;;;;;;5047247;28;20671;-73
2022/08/02 08:56:04;;;;;;;0.45;0.45;;;29.40;44.90;;;;;;5001837;28;20028;-74
2022/08/02 08:58:30;;;;;;;1.48;0.50;;;29.60;44.50;;;;;;5010634;28;20451;-74
2022/08/02 09:00:55;;;;;;;0.90;0.60;;;29.80;43.90;;;;;;5023707;28;20119;-73
2022/08/02 09:03:21;;;;;;;1.33;0.80;;;30.00;43.50;;;;;;5024150;28;20025;-74
2022/08/02 09:05:46;;;;;;;0.90;0.68;;;30.10;43.10;;;;;;5028878;28;20070;-73
2022/08/02 09:08:13;;;;;;;2.30;0.52;;;30.30;42.60;;;;;;5026706;28;20136;-74
2022/08/02 09:10:45;;;;;;;2.45;0.57;;;30.40;42.20;;;;;;5031652;28;20051;-72
2022/08/02 09:13:21;;;;;;;1.00;0.90;;;30.60;42.00;;;;;;5037446;28;20074;-73
2022/08/02 09:16:02;;;;;;;0.60;0.60;;;30.70;41.10;;;;;;5021542;28;20089;-74
2022/08/02 09:18:34;;;;;;;1.67;0.60;;;30.90;41.00;;;;;;5015512;28;20029;-73
2022/08/02 09:21:01;;;;;;;0.95;0.75;;;31.00;41.20;;;;;;5045999;28;20032;-74
2022/08/02 09:23:33;;;;;;;0.70;0.70;;;31.20;41.80;;;;;;5031654;28;20036;-74
2022/08/02 09:26:00;;;;;;;2.05;1.10;;;31.40;41.20;;;;;;5039503;28;20088;-74
2022/08/02 09:28:30;;;;;;;2.50;0.85;;;31.60;40.60;;;;;;5037504;28;20784;-74
2022/08/02 09:30:58;;;;;;;1.65;0.68;;;31.70;40.20;;;;;;5044248;28;20040;-73
2022/08/02 09:33:27;;;;;;;0.65;0.60;;;31.90;40.10;;;;;;5043627;28;20135;-73
2022/08/02 09:36:03;;;;;;;0.60;0.60;;;32.10;39.70;;;;;;5023086;28;20036;-74
2022/08/02 09:38:29;;;;;;;3.90;0.95;;;32.20;38.70;;;;;;5032148;28;20273;-76
2022/08/02 09:40:55;;;;;;;2.25;0.77;;;32.30;39.00;;;;;;5024275;28;20077;-76
2022/08/02 09:43:20;;;;;;;3.15;0.57;;;32.40;38.60;;;;;;5030428;28;20032;-76
2022/08/02 09:45:46;;;;;;;0.93;0.60;;;32.50;38.40;;;;;;5050172;28;20438;-75
2022/08/02 09:48:11;;;;;;;0.88;0.55;;;32.70;38.10;;;;;;5067124;28;20028;-74
2022/08/02 09:50:38;;;;;;;1.67;0.73;;;32.80;37.90;;;;;;5008294;28;20528;-73
2022/08/02 09:53:04;;;;;;;2.03;0.52;;;32.90;37.70;;;;;;5042867;28;20029;-76
2022/08/02 09:55:29;;;;;;;0.95;0.68;;;33.10;37.40;;;;;;5044133;28;20542;-75
2022/08/02 09:57:55;;;;;;;1.20;0.80;;;33.30;37.00;;;;;;5064320;28;20655;-77
2022/08/02 10:00:21;;;;;;;0.60;0.60;;;33.40;36.80;;;;;;5050832;28;20389;-77
2022/08/02 10:03:05;;;;;;;0.75;0.55;;;33.60;36.60;;;;;;5030067;28;20086;-73
2022/08/02 10:05:44;;;;;;;0.73;0.50;;;33.70;35.30;;;;;;5043870;28;20043;-74
2022/08/02 10:08:09;;;;;;;0.95;0.50;;;33.90;35.10;;;;;;5033375;28;20036;-72
2022/08/02 10:10:35;;;;;;;0.60;0.60;;;34.10;35.80;;;;;;5025718;28;20025;-74
2022/08/02 10:13:00;;;;;;;0.75;0.60;;;34.20;35.40;;;;;;5050550;28;20036;-73
2022/08/02 10:15:26;;;;;;;1.98;0.40;;;34.40;35.20;;;;;;5027594;28;20029;-74
2022/08/02 10:17:52;;;;;;;0.40;0.40;;;34.50;35.10;;;;;;5032928;28;20540;-74
2022/08/02 10:20:17;;;;;;;1.13;0.73;;;34.60;34.80;;;;;;5043134;28;20040;-73
2022/08/02 10:22:43;;;;;;;0.75;0.50;;;34.80;34.40;;;;;;5077909;28;20042;-74
2022/08/02 10:25:09;;;;;;;0.77;0.70;;;35.00;34.20;;;;;;5043387;28;20024;-73
2022/08/02 10:27:34;;;;;;;0.82;0.63;;;35.10;34.00;;;;;;5029952;28;20127;-74
2022/08/02 10:30:00;;;;;;;1.30;0.60;;;35.20;33.80;;;;;;5032661;28;20111;-73
2022/08/02 10:32:30;;;;;;;0.40;0.40;;;35.40;33.60;;;;;;5016380;28;20476;-75
2022/08/02 10:35:15;;;;;;;1.05;0.60;;;35.60;33.50;;;;;;5050204;28;20051;-74
2022/08/02 10:37:41;;;;;;;1.75;0.70;;;35.80;32.70;;;;;;5020107;28;20101;-74
2022/08/02 10:40:21;;;;;;;1.02;0.60;;;36.00;33.30;;;;;;5014270;28;20672;-73
2022/08/02 10:42:51;;;;;;;0.60;0.50;;;36.20;33.00;;;;;;5016153;28;20948;-74
2022/08/02 10:45:18;;;;;;;0.88;0.50;;;36.30;32.50;;;;;;5006084;28;20553;-75
2022/08/02 10:48:03;;;;;;;0.60;0.60;;;36.40;32.40;;;;;;5044381;28;20137;-74
2022/08/02 10:50:46;;;;;;;3.03;1.40;;;36.40;30.90;;;;;;5045420;28;20057;-74
2022/08/02 10:53:33;;;;;;;0.82;0.60;;;36.40;31.30;;;;;;5047319;28;20079;-74
2022/08/02 10:56:00;;;;;;;0.50;0.50;;;36.40;31.10;;;;;;5056399;28;20040;-73
2022/08/02 10:58:28;;;;;;;1.67;0.77;;;36.40;31.40;;;;;;5052708;28;20037;-74
2022/08/02 11:00:53;;;;;;;0.60;0.60;;;36.60;31.20;;;;;;5009989;28;20094;-73
2022/08/02 11:03:28;;;;;;;0.82;0.82;;;36.70;31.10;;;;;;5034664;28;20071;-74
2022/08/02 11:06:01;;;;;;;1.13;0.50;;;36.80;30.40;;;;;;5038923;28;20126;-75
2022/08/02 11:08:27;;;;;;;0.40;0.40;;;37.00;30.60;;;;;;5030881;28;20039;-74
2022/08/02 11:10:56;;;;;;;1.38;1.02;;;37.10;30.80;;;;;;5036830;28;20040;-74
2022/08/02 11:13:25;;;;;;;0.77;0.77;;;37.20;30.40;;;;;;5016964;28;20048;-75
2022/08/02 11:16:01;;;;;;;0.40;0.40;;;37.20;30.20;;;;;;5044439;28;20025;-74
2022/08/02 11:18:51;;;;;;;1.38;0.57;;;37.30;29.90;;;;;;5030814;28;20044;-76
2022/08/02 11:21:42;;;;;;;0.47;0.47;;;37.40;29.90;;;;;;5069348;28;20090;-74
2022/08/02 11:24:30;;;;;;;1.73;0.63;;;37.60;29.60;;;;;;5049917;28;20602;-74
2022/08/02 11:26:57;;;;;;;0.55;0.55;;;37.70;29.40;;;;;;5045159;28;20039;-73
2022/08/02 11:29:34;;;;;;;0.68;0.68;;;37.80;29.90;;;;;;5015657;28;20029;-75
2022/08/02 11:32:00;;;;;;;0.63;0.60;;;37.90;29.40;;;;;;5040012;28;20040;-74
2022/08/02 11:34:25;;;;;;;1.30;0.55;;;37.90;29.60;;;;;;5040525;28;20028;-74
2022/08/02 11:36:51;;;;;;;1.10;0.52;;;38.00;29.60;;;;;;5023835;28;20028;-76
2022/08/02 11:39:21;;;;;;;2.08;0.70;;;38.10;29.60;;;;;;5013998;28;20640;-74
2022/08/02 11:41:51;;;;;;;2.05;0.60;;;38.10;29.30;;;;;;5032932;28;20081;-75
2022/08/02 11:44:17;;;;;;;2.80;1.00;;;38.20;28.90;;;;;;5035908;28;20052;-76
2022/08/02 11:46:42;;;;;;;0.90;0.75;;;38.30;28.90;;;;;;5048113;28;20040;-74
2022/08/02 11:49:16;;;;;;;1.80;0.63;;;38.30;28.70;;;;;;5048121;28;20032;-75
2022/08/02 11:51:52;;;;;;;0.50;0.50;;;38.40;28.40;;;;;;5025897;28;20036;-73
2022/08/02 11:54:28;;;;;;;0.70;0.40;;;38.50;28.30;;;;;;5044028;28;20098;-72
2022/08/02 11:56:54;;;;;;;0.60;0.45;;;38.60;28.20;;;;;;5045849;28;20051;-71
2022/08/02 11:59:20;;;;;;;0.75;0.73;;;38.60;28.50;;;;;;5015053;28;20128;-72
2022/08/02 12:01:45;;;;;;;0.50;0.50;;;38.60;28.50;;;;;;5001631;28;20037;-74
2022/08/02 12:04:12;;;;;;;3.15;0.50;;;38.70;28.50;;;;;;5037776;28;20091;-74
2022/08/02 12:06:37;;;;;;;0.52;0.52;;;38.80;28.50;;;;;;5038239;28;20029;-76
2022/08/02 12:09:07;;;;;;;0.50;0.50;;;38.90;28.40;;;;;;5034641;28;20059;-74
2022/08/02 12:11:33;;;;;;;0.77;0.45;;;38.80;27.90;;;;;;5059121;28;20570;-74
2022/08/02 12:13:59;;;;;;;0.30;0.30;;;38.90;28.00;;;;;;5048318;28;20049;-74
2022/08/02 12:19:19;;;;;;;0.55;0.55;;;38.90;27.70;;;;;;5038176;28;20070;-74
2022/08/02 12:21:45;;;;;;;0.90;0.70;;;39.00;27.70;;;;;;5034722;28;20033;-74
2022/08/02 12:24:11;;;;;;;0.60;0.50;;;39.00;27.50;;;;;;5029906;28;20036;-74
2022/08/02 12:26:43;;;;;;;0.85;0.50;;;38.90;27.30;;;;;;5055470;28;20042;-74
2022/08/02 12:29:10;;;;;;;1.25;0.57;;;38.90;27.00;;;;;;5043574;28;20115;-74
2022/08/02 12:31:43;;;;;;;2.10;0.55;;;38.90;27.10;;;;;;5032915;28;20472;-75
2022/08/02 12:34:15;;;;;;;0.43;0.40;;;38.90;26.70;;;;;;5043898;28;20035;-74
2022/08/02 12:36:41;;;;;;;0.77;0.40;;;38.80;26.90;;;;;;5028419;28;20617;-74
2022/08/02 12:39:10;;;;;;;2.05;0.50;;;38.90;27.00;;;;;;5034732;28;20032;-74
2022/08/02 12:41:36;;;;;;;1.30;0.47;;;38.90;26.90;;;;;;5051235;28;20105;-74
2022/08/02 12:44:01;;;;;;;0.45;0.43;;;38.90;26.90;;;;;;5039301;28;20118;-73
2022/08/02 12:46:27;;;;;;;0.30;0.30;;;38.90;26.90;;;;;;5038842;28;20105;-74
2022/08/02 12:48:53;;;;;;;1.25;0.50;;;38.90;26.90;;;;;;5059115;28;20040;-74
2022/08/02 12:51:23;;;;;;;0.40;0.40;;;39.00;26.90;;;;;;5068134;28;20088;-74
2022/08/02 12:53:49;;;;;;;0.70;0.70;;;39.00;26.80;;;;;;5040369;28;20132;-75
2022/08/02 12:56:31;;;;;;;0.45;0.45;;;39.10;26.90;;;;;;5019083;28;20374;-75